sensor_id;sensor_type;location;lat;lon;timestamp;temperature;humidity
54938;DHT22;52756;52.826;6.214;2023-05-07T00:01:17;15.10;83.20
54938;DHT22;52756;52.826;6.214;2023-05-07T00:03:43;15.10;83.30
54938;DHT22;52756;52.826;6.214;2023-05-07T00:06:08;15.10;83.30
54938;DHT22;52756;52.826;6.214;2023-05-07T00:08:35;15.10;83.40
54938;DHT22;52756;52.826;6.214;2023-05-07T00:11:01;15.20;83.50
54938;DHT22;52756;52.826;6.214;2023-05-07T00:13:26;15.20;83.50
54938;DHT22;52756;52.826;6.214;2023-05-07T00:15:52;15.20;83.40
54938;DHT22;52756;52.826;6.214;2023-05-07T00:18:18;15.20;83.30
54938;DHT22;52756;52.826;6.214;2023-05-07T00:20:47;15.20;83.20
54938;DHT22;52756;52.826;6.214;2023-05-07T00:23:13;15.20;83.20
54938;DHT22;52756;52.826;6.214;2023-05-07T00:25:39;15.20;83.10
54938;DHT22;52756;52.826;6.214;2023-05-07T00:28:04;15.20;83.10
54938;DHT22;52756;52.826;6.214;2023-05-07T00:30:30;15.20;83.20
54938;DHT22;52756;52.826;6.214;2023-05-07T00:32:56;15.20;83.20
54938;DHT22;52756;52.826;6.214;2023-05-07T00:35:22;15.30;83.20
54938;DHT22;52756;52.826;6.214;2023-05-07T00:37:47;15.20;83.10
54938;DHT22;52756;52.826;6.214;2023-05-07T00:40:14;15.20;83.10
54938;DHT22;52756;52.826;6.214;2023-05-07T00:42:40;15.20;83.00
54938;DHT22;52756;52.826;6.214;2023-05-07T00:45:06;15.10;83.00
54938;DHT22;52756;52.826;6.214;2023-05-07T00:47:33;15.00;82.90
54938;DHT22;52756;52.826;6.214;2023-05-07T00:49:58;15.00;83.10
54938;DHT22;52756;52.826;6.214;2023-05-07T00:52:25;14.90;83.10
54938;DHT22;52756;52.826;6.214;2023-05-07T00:54:51;14.90;83.30
54938;DHT22;52756;52.826;6.214;2023-05-07T00:57:17;14.80;83.40
54938;DHT22;52756;52.826;6.214;2023-05-07T00:59:44;14.80;83.60
54938;DHT22;52756;52.826;6.214;2023-05-07T01:02:10;14.80;83.70
54938;DHT22;52756;52.826;6.214;2023-05-07T01:04:36;14.70;83.70
54938;DHT22;52756;52.826;6.214;2023-05-07T01:07:02;14.70;83.80
54938;DHT22;52756;52.826;6.214;2023-05-07T01:09:29;14.70;83.90
54938;DHT22;52756;52.826;6.214;2023-05-07T01:11:55;14.70;84.00
54938;DHT22;52756;52.826;6.214;2023-05-07T01:14:23;14.60;84.00
54938;DHT22;52756;52.826;6.214;2023-05-07T01:16:49;14.60;84.10
54938;DHT22;52756;52.826;6.214;2023-05-07T01:19:18;14.50;84.00
54938;DHT22;52756;52.826;6.214;2023-05-07T01:21:48;14.50;84.10
54938;DHT22;52756;52.826;6.214;2023-05-07T01:24:14;14.50;84.30
54938;DHT22;52756;52.826;6.214;2023-05-07T01:26:41;14.50;84.30
54938;DHT22;52756;52.826;6.214;2023-05-07T01:29:07;14.40;84.20
54938;DHT22;52756;52.826;6.214;2023-05-07T01:31:34;14.40;84.40
54938;DHT22;52756;52.826;6.214;2023-05-07T01:34:01;14.40;84.40
54938;DHT22;52756;52.826;6.214;2023-05-07T01:36:29;14.40;84.50
54938;DHT22;52756;52.826;6.214;2023-05-07T01:38:55;14.40;84.50
54938;DHT22;52756;52.826;6.214;2023-05-07T01:41:23;14.30;84.40
54938;DHT22;52756;52.826;6.214;2023-05-07T01:43:50;14.30;84.50
54938;DHT22;52756;52.826;6.214;2023-05-07T01:46:18;14.20;84.40
54938;DHT22;52756;52.826;6.214;2023-05-07T01:48:45;14.20;84.50
54938;DHT22;52756;52.826;6.214;2023-05-07T01:51:11;14.20;84.40
54938;DHT22;52756;52.826;6.214;2023-05-07T01:53:38;14.10;84.30
54938;DHT22;52756;52.826;6.214;2023-05-07T01:56:04;14.10;84.40
54938;DHT22;52756;52.826;6.214;2023-05-07T01:58:30;14.00;84.30
54938;DHT22;52756;52.826;6.214;2023-05-07T02:00:56;14.10;84.40
54938;DHT22;52756;52.826;6.214;2023-05-07T02:03:22;14.00;84.30
54938;DHT22;52756;52.826;6.214;2023-05-07T02:05:47;14.00;84.40
54938;DHT22;52756;52.826;6.214;2023-05-07T02:08:13;14.00;84.40
54938;DHT22;52756;52.826;6.214;2023-05-07T02:10:39;14.00;84.50
54938;DHT22;52756;52.826;6.214;2023-05-07T02:13:05;14.00;84.60
54938;DHT22;52756;52.826;6.214;2023-05-07T02:15:30;14.00;84.60
54938;DHT22;52756;52.826;6.214;2023-05-07T02:18:08;14.00;84.70
54938;DHT22;52756;52.826;6.214;2023-05-07T02:20:34;13.90;84.70
54938;DHT22;52756;52.826;6.214;2023-05-07T02:23:00;13.90;84.60
54938;DHT22;52756;52.826;6.214;2023-05-07T02:25:26;13.90;84.60
54938;DHT22;52756;52.826;6.214;2023-05-07T02:27:52;13.80;84.40
54938;DHT22;52756;52.826;6.214;2023-05-07T02:30:17;13.80;84.10
54938;DHT22;52756;52.826;6.214;2023-05-07T02:32:43;13.80;83.90
54938;DHT22;52756;52.826;6.214;2023-05-07T02:35:09;13.70;83.70
54938;DHT22;52756;52.826;6.214;2023-05-07T02:37:35;13.70;83.60
54938;DHT22;52756;52.826;6.214;2023-05-07T02:40:00;13.60;83.50
54938;DHT22;52756;52.826;6.214;2023-05-07T02:42:26;13.60;83.50
54938;DHT22;52756;52.826;6.214;2023-05-07T02:44:52;13.50;83.50
54938;DHT22;52756;52.826;6.214;2023-05-07T02:47:17;13.50;83.60
54938;DHT22;52756;52.826;6.214;2023-05-07T02:49:43;13.40;83.70
54938;DHT22;52756;52.826;6.214;2023-05-07T02:52:09;13.40;83.90
54938;DHT22;52756;52.826;6.214;2023-05-07T02:54:35;13.40;84.40
54938;DHT22;52756;52.826;6.214;2023-05-07T02:57:00;13.40;84.20
54938;DHT22;52756;52.826;6.214;2023-05-07T02:59:27;13.30;83.90
54938;DHT22;52756;52.826;6.214;2023-05-07T03:01:53;13.30;83.80
54938;DHT22;52756;52.826;6.214;2023-05-07T03:04:18;13.20;83.60
54938;DHT22;52756;52.826;6.214;2023-05-07T03:06:44;13.20;83.70
54938;DHT22;52756;52.826;6.214;2023-05-07T03:09:10;13.10;83.60
54938;DHT22;52756;52.826;6.214;2023-05-07T03:11:36;13.10;83.80
54938;DHT22;52756;52.826;6.214;2023-05-07T03:14:02;13.10;84.00
54938;DHT22;52756;52.826;6.214;2023-05-07T03:16:28;13.00;84.00
54938;DHT22;52756;52.826;6.214;2023-05-07T03:18:53;13.10;84.10
54938;DHT22;52756;52.826;6.214;2023-05-07T03:21:19;13.00;84.10
54938;DHT22;52756;52.826;6.214;2023-05-07T03:23:45;13.00;84.00
54938;DHT22;52756;52.826;6.214;2023-05-07T03:26:10;13.00;84.00
54938;DHT22;52756;52.826;6.214;2023-05-07T03:28:37;12.90;84.00
54938;DHT22;52756;52.826;6.214;2023-05-07T03:31:02;12.90;84.00
54938;DHT22;52756;52.826;6.214;2023-05-07T03:33:28;12.90;83.90
54938;DHT22;52756;52.826;6.214;2023-05-07T03:35:54;12.90;83.90
54938;DHT22;52756;52.826;6.214;2023-05-07T03:38:20;12.90;83.90
54938;DHT22;52756;52.826;6.214;2023-05-07T03:40:45;12.90;84.00
54938;DHT22;52756;52.826;6.214;2023-05-07T03:43:11;12.90;84.00
54938;DHT22;52756;52.826;6.214;2023-05-07T03:45:37;12.80;83.90
54938;DHT22;52756;52.826;6.214;2023-05-07T03:48:03;12.80;83.80
54938;DHT22;52756;52.826;6.214;2023-05-07T03:50:28;12.80;83.90
54938;DHT22;52756;52.826;6.214;2023-05-07T03:52:54;12.80;83.90
54938;DHT22;52756;52.826;6.214;2023-05-07T03:55:20;12.70;83.90
54938;DHT22;52756;52.826;6.214;2023-05-07T03:57:46;12.70;83.90
54938;DHT22;52756;52.826;6.214;2023-05-07T04:00:12;12.70;84.00
54938;DHT22;52756;52.826;6.214;2023-05-07T04:02:38;12.70;84.40
54938;DHT22;52756;52.826;6.214;2023-05-07T04:05:04;12.60;84.00
54938;DHT22;52756;52.826;6.214;2023-05-07T04:07:30;12.60;84.10
54938;DHT22;52756;52.826;6.214;2023-05-07T04:09:56;12.50;84.10
54938;DHT22;52756;52.826;6.214;2023-05-07T04:12:21;12.50;84.10
54938;DHT22;52756;52.826;6.214;2023-05-07T04:14:47;12.50;84.10
54938;DHT22;52756;52.826;6.214;2023-05-07T04:17:13;12.40;84.10
54938;DHT22;52756;52.826;6.214;2023-05-07T04:19:38;12.40;84.10
54938;DHT22;52756;52.826;6.214;2023-05-07T04:22:04;12.40;84.20
54938;DHT22;52756;52.826;6.214;2023-05-07T04:24:33;12.40;84.20
54938;DHT22;52756;52.826;6.214;2023-05-07T04:26:58;12.40;84.20
54938;DHT22;52756;52.826;6.214;2023-05-07T04:29:25;12.40;84.20
54938;DHT22;52756;52.826;6.214;2023-05-07T04:31:50;12.40;84.30
54938;DHT22;52756;52.826;6.214;2023-05-07T04:34:16;12.30;84.60
54938;DHT22;52756;52.826;6.214;2023-05-07T04:36:42;12.30;84.30
54938;DHT22;52756;52.826;6.214;2023-05-07T04:39:07;12.30;84.40
54938;DHT22;52756;52.826;6.214;2023-05-07T04:41:35;12.30;84.50
54938;DHT22;52756;52.826;6.214;2023-05-07T04:44:01;12.30;84.50
54938;DHT22;52756;52.826;6.214;2023-05-07T04:46:30;12.30;84.50
54938;DHT22;52756;52.826;6.214;2023-05-07T04:48:56;12.30;84.60
54938;DHT22;52756;52.826;6.214;2023-05-07T04:51:21;12.30;84.50
54938;DHT22;52756;52.826;6.214;2023-05-07T04:53:48;12.30;84.50
54938;DHT22;52756;52.826;6.214;2023-05-07T04:56:14;12.30;84.60
54938;DHT22;52756;52.826;6.214;2023-05-07T04:58:40;12.30;84.60
54938;DHT22;52756;52.826;6.214;2023-05-07T05:01:05;12.30;84.60
54938;DHT22;52756;52.826;6.214;2023-05-07T05:03:31;12.30;84.60
54938;DHT22;52756;52.826;6.214;2023-05-07T05:05:57;12.30;84.60
54938;DHT22;52756;52.826;6.214;2023-05-07T05:08:25;12.30;84.50
54938;DHT22;52756;52.826;6.214;2023-05-07T05:10:51;12.20;84.40
54938;DHT22;52756;52.826;6.214;2023-05-07T05:13:17;12.20;84.40
54938;DHT22;52756;52.826;6.214;2023-05-07T05:15:42;12.20;84.30
54938;DHT22;52756;52.826;6.214;2023-05-07T05:18:08;12.20;84.20
54938;DHT22;52756;52.826;6.214;2023-05-07T05:20:34;12.20;84.20
54938;DHT22;52756;52.826;6.214;2023-05-07T05:22:59;12.20;84.30
54938;DHT22;52756;52.826;6.214;2023-05-07T05:25:25;12.20;84.50
54938;DHT22;52756;52.826;6.214;2023-05-07T05:27:51;12.20;84.40
54938;DHT22;52756;52.826;6.214;2023-05-07T05:30:17;12.20;84.30
54938;DHT22;52756;52.826;6.214;2023-05-07T05:32:42;12.20;84.40
54938;DHT22;52756;52.826;6.214;2023-05-07T05:35:08;12.30;84.60
54938;DHT22;52756;52.826;6.214;2023-05-07T05:37:34;12.30;84.60
54938;DHT22;52756;52.826;6.214;2023-05-07T05:39:59;12.30;84.40
54938;DHT22;52756;52.826;6.214;2023-05-07T05:42:25;12.30;84.50
54938;DHT22;52756;52.826;6.214;2023-05-07T05:44:51;12.30;84.60
54938;DHT22;52756;52.826;6.214;2023-05-07T05:47:16;12.40;84.60
54938;DHT22;52756;52.826;6.214;2023-05-07T05:49:42;12.30;84.40
54938;DHT22;52756;52.826;6.214;2023-05-07T05:52:09;12.30;84.30
54938;DHT22;52756;52.826;6.214;2023-05-07T05:54:35;12.40;84.30
54938;DHT22;52756;52.826;6.214;2023-05-07T05:57:00;12.40;84.30
54938;DHT22;52756;52.826;6.214;2023-05-07T05:59:29;12.40;84.10
54938;DHT22;52756;52.826;6.214;2023-05-07T06:01:55;12.30;84.10
54938;DHT22;52756;52.826;6.214;2023-05-07T06:04:20;12.30;84.10
54938;DHT22;52756;52.826;6.214;2023-05-07T06:06:46;12.30;84.10
54938;DHT22;52756;52.826;6.214;2023-05-07T06:09:12;12.30;84.00
54938;DHT22;52756;52.826;6.214;2023-05-07T06:11:37;12.30;84.00
54938;DHT22;52756;52.826;6.214;2023-05-07T06:14:03;12.30;84.00
54938;DHT22;52756;52.826;6.214;2023-05-07T06:16:29;12.30;84.00
54938;DHT22;52756;52.826;6.214;2023-05-07T06:18:55;12.30;84.00
54938;DHT22;52756;52.826;6.214;2023-05-07T06:21:21;12.30;84.10
54938;DHT22;52756;52.826;6.214;2023-05-07T06:23:46;12.30;84.50
54938;DHT22;52756;52.826;6.214;2023-05-07T06:26:12;12.30;84.30
54938;DHT22;52756;52.826;6.214;2023-05-07T06:28:38;12.30;84.40
54938;DHT22;52756;52.826;6.214;2023-05-07T06:31:20;12.40;84.40
54938;DHT22;52756;52.826;6.214;2023-05-07T06:33:46;12.40;84.40
54938;DHT22;52756;52.826;6.214;2023-05-07T06:36:12;12.40;84.50
54938;DHT22;52756;52.826;6.214;2023-05-07T06:38:38;12.50;84.70
54938;DHT22;52756;52.826;6.214;2023-05-07T06:41:05;12.50;84.70
54938;DHT22;52756;52.826;6.214;2023-05-07T06:43:31;12.50;84.60
54938;DHT22;52756;52.826;6.214;2023-05-07T06:45:57;12.60;84.40
54938;DHT22;52756;52.826;6.214;2023-05-07T06:48:23;12.60;84.10
54938;DHT22;52756;52.826;6.214;2023-05-07T06:50:48;12.70;84.20
54938;DHT22;52756;52.826;6.214;2023-05-07T06:53:14;12.70;84.20
54938;DHT22;52756;52.826;6.214;2023-05-07T06:55:40;12.70;84.10
54938;DHT22;52756;52.826;6.214;2023-05-07T06:58:07;12.80;84.00
54938;DHT22;52756;52.826;6.214;2023-05-07T07:00:32;12.80;83.80
54938;DHT22;52756;52.826;6.214;2023-05-07T07:02:58;12.90;83.80
54938;DHT22;52756;52.826;6.214;2023-05-07T07:05:25;12.90;83.60
54938;DHT22;52756;52.826;6.214;2023-05-07T07:07:50;13.00;83.50
54938;DHT22;52756;52.826;6.214;2023-05-07T07:10:21;13.00;83.50
54938;DHT22;52756;52.826;6.214;2023-05-07T07:12:48;13.10;83.30
54938;DHT22;52756;52.826;6.214;2023-05-07T07:15:14;13.20;82.80
54938;DHT22;52756;52.826;6.214;2023-05-07T07:17:40;13.20;82.40
54938;DHT22;52756;52.826;6.214;2023-05-07T07:20:06;13.20;82.30
54938;DHT22;52756;52.826;6.214;2023-05-07T07:22:32;13.40;82.40
54938;DHT22;52756;52.826;6.214;2023-05-07T07:24:58;13.40;82.40
54938;DHT22;52756;52.826;6.214;2023-05-07T07:27:24;13.60;82.60
54938;DHT22;52756;52.826;6.214;2023-05-07T07:29:49;13.70;82.30
54938;DHT22;52756;52.826;6.214;2023-05-07T07:32:15;13.70;81.80
54938;DHT22;52756;52.826;6.214;2023-05-07T07:34:41;13.80;81.70
54938;DHT22;52756;52.826;6.214;2023-05-07T07:37:07;13.90;81.80
54938;DHT22;52756;52.826;6.214;2023-05-07T07:39:33;13.90;81.10
54938;DHT22;52756;52.826;6.214;2023-05-07T07:41:59;14.00;80.50
54938;DHT22;52756;52.826;6.214;2023-05-07T07:44:25;14.00;80.20
54938;DHT22;52756;52.826;6.214;2023-05-07T07:46:51;14.00;80.10
54938;DHT22;52756;52.826;6.214;2023-05-07T07:49:16;14.00;80.00
54938;DHT22;52756;52.826;6.214;2023-05-07T07:51:42;14.00;80.00
54938;DHT22;52756;52.826;6.214;2023-05-07T07:54:08;14.10;80.10
54938;DHT22;52756;52.826;6.214;2023-05-07T07:56:34;14.20;79.90
54938;DHT22;52756;52.826;6.214;2023-05-07T07:59:01;14.20;79.90
54938;DHT22;52756;52.826;6.214;2023-05-07T08:01:27;14.20;79.80
54938;DHT22;52756;52.826;6.214;2023-05-07T08:03:53;14.30;79.80
54938;DHT22;52756;52.826;6.214;2023-05-07T08:06:19;14.40;80.20
54938;DHT22;52756;52.826;6.214;2023-05-07T08:08:45;14.50;79.80
54938;DHT22;52756;52.826;6.214;2023-05-07T08:11:10;14.60;79.60
54938;DHT22;52756;52.826;6.214;2023-05-07T08:13:36;14.70;79.70
54938;DHT22;52756;52.826;6.214;2023-05-07T08:16:04;14.80;79.10
54938;DHT22;52756;52.826;6.214;2023-05-07T08:18:30;14.80;78.50
54938;DHT22;52756;52.826;6.214;2023-05-07T08:20:55;14.90;78.30
54938;DHT22;52756;52.826;6.214;2023-05-07T08:23:21;15.00;78.40
54938;DHT22;52756;52.826;6.214;2023-05-07T08:25:48;15.00;77.90
54938;DHT22;52756;52.826;6.214;2023-05-07T08:28:14;15.00;77.40
54938;DHT22;52756;52.826;6.214;2023-05-07T08:30:40;15.10;77.70
54938;DHT22;52756;52.826;6.214;2023-05-07T08:33:08;15.10;77.60
54938;DHT22;52756;52.826;6.214;2023-05-07T08:35:35;15.20;77.40
54938;DHT22;52756;52.826;6.214;2023-05-07T08:38:00;15.20;76.90
54938;DHT22;52756;52.826;6.214;2023-05-07T08:40:26;15.20;76.60
54938;DHT22;52756;52.826;6.214;2023-05-07T08:42:53;15.30;76.50
54938;DHT22;52756;52.826;6.214;2023-05-07T08:45:20;15.40;76.60
54938;DHT22;52756;52.826;6.214;2023-05-07T08:47:56;15.40;76.00
54938;DHT22;52756;52.826;6.214;2023-05-07T08:50:24;15.40;75.50
54938;DHT22;52756;52.826;6.214;2023-05-07T08:52:49;15.40;76.20
54938;DHT22;52756;52.826;6.214;2023-05-07T08:55:15;15.50;76.60
54938;DHT22;52756;52.826;6.214;2023-05-07T08:57:41;15.50;76.50
54938;DHT22;52756;52.826;6.214;2023-05-07T09:00:07;15.60;76.10
54938;DHT22;52756;52.826;6.214;2023-05-07T09:02:35;15.70;76.70
54938;DHT22;52756;52.826;6.214;2023-05-07T09:05:02;15.80;76.60
54938;DHT22;52756;52.826;6.214;2023-05-07T09:07:28;15.90;76.10
54938;DHT22;52756;52.826;6.214;2023-05-07T09:09:54;16.00;75.80
54938;DHT22;52756;52.826;6.214;2023-05-07T09:12:21;16.00;74.80
54938;DHT22;52756;52.826;6.214;2023-05-07T09:14:47;16.00;74.50
54938;DHT22;52756;52.826;6.214;2023-05-07T09:17:13;16.10;74.50
54938;DHT22;52756;52.826;6.214;2023-05-07T09:19:39;16.10;74.50
54938;DHT22;52756;52.826;6.214;2023-05-07T09:22:05;16.10;74.50
54938;DHT22;52756;52.826;6.214;2023-05-07T09:24:32;16.20;74.60
54938;DHT22;52756;52.826;6.214;2023-05-07T09:27:04;16.30;73.90
54938;DHT22;52756;52.826;6.214;2023-05-07T09:29:30;16.30;73.80
54938;DHT22;52756;52.826;6.214;2023-05-07T09:32:07;16.30;74.40
54938;DHT22;52756;52.826;6.214;2023-05-07T09:34:34;16.40;74.80
54938;DHT22;52756;52.826;6.214;2023-05-07T09:37:04;16.50;74.10
54938;DHT22;52756;52.826;6.214;2023-05-07T09:42:06;16.60;72.90
54938;DHT22;52756;52.826;6.214;2023-05-07T09:44:33;16.60;72.80
54938;DHT22;52756;52.826;6.214;2023-05-07T09:47:00;16.60;72.90
54938;DHT22;52756;52.826;6.214;2023-05-07T09:49:29;16.60;72.70
54938;DHT22;52756;52.826;6.214;2023-05-07T09:52:00;16.60;72.50
54938;DHT22;52756;52.826;6.214;2023-05-07T09:54:26;16.60;72.90
54938;DHT22;52756;52.826;6.214;2023-05-07T09:56:55;16.60;73.30
54938;DHT22;52756;52.826;6.214;2023-05-07T09:59:21;16.70;74.00
54938;DHT22;52756;52.826;6.214;2023-05-07T10:01:49;16.70;73.80
54938;DHT22;52756;52.826;6.214;2023-05-07T10:04:15;16.80;73.20
54938;DHT22;52756;52.826;6.214;2023-05-07T10:06:44;16.80;72.50
54938;DHT22;52756;52.826;6.214;2023-05-07T10:09:10;16.80;72.70
54938;DHT22;52756;52.826;6.214;2023-05-07T10:11:36;16.80;73.40
54938;DHT22;52756;52.826;6.214;2023-05-07T10:14:03;16.80;73.20
54938;DHT22;52756;52.826;6.214;2023-05-07T10:16:35;17.00;73.70
54938;DHT22;52756;52.826;6.214;2023-05-07T10:19:06;17.00;73.30
54938;DHT22;52756;52.826;6.214;2023-05-07T10:21:55;17.10;72.90
54938;DHT22;52756;52.826;6.214;2023-05-07T10:24:26;17.20;73.40
54938;DHT22;52756;52.826;6.214;2023-05-07T10:26:55;17.30;72.70
54938;DHT22;52756;52.826;6.214;2023-05-07T10:32:51;17.50;72.10
54938;DHT22;52756;52.826;6.214;2023-05-07T10:35:26;17.60;71.70
54938;DHT22;52756;52.826;6.214;2023-05-07T10:37:54;17.70;71.10
54938;DHT22;52756;52.826;6.214;2023-05-07T10:40:21;17.70;71.50
54938;DHT22;52756;52.826;6.214;2023-05-07T10:43:00;17.70;71.00
54938;DHT22;52756;52.826;6.214;2023-05-07T10:45:27;17.80;71.50
54938;DHT22;52756;52.826;6.214;2023-05-07T10:50:31;17.90;70.60
54938;DHT22;52756;52.826;6.214;2023-05-07T10:53:21;17.90;70.50
54938;DHT22;52756;52.826;6.214;2023-05-07T10:55:51;17.90;70.10
54938;DHT22;52756;52.826;6.214;2023-05-07T10:58:33;18.00;71.10
54938;DHT22;52756;52.826;6.214;2023-05-07T11:01:02;18.00;71.40
54938;DHT22;52756;52.826;6.214;2023-05-07T11:03:29;18.10;70.80
54938;DHT22;52756;52.826;6.214;2023-05-07T11:06:14;18.10;70.40
54938;DHT22;52756;52.826;6.214;2023-05-07T11:08:53;18.30;70.90
54938;DHT22;52756;52.826;6.214;2023-05-07T11:11:19;18.40;70.60
54938;DHT22;52756;52.826;6.214;2023-05-07T11:13:47;18.00;69.90
54938;DHT22;52756;52.826;6.214;2023-05-07T11:16:25;18.50;69.50
54938;DHT22;52756;52.826;6.214;2023-05-07T11:18:56;18.60;69.30
54938;DHT22;52756;52.826;6.214;2023-05-07T11:24:02;18.70;68.80
54938;DHT22;52756;52.826;6.214;2023-05-07T11:26:30;18.80;67.90
54938;DHT22;52756;52.826;6.214;2023-05-07T11:28:57;18.80;68.70
54938;DHT22;52756;52.826;6.214;2023-05-07T11:31:25;18.90;69.30
54938;DHT22;52756;52.826;6.214;2023-05-07T11:33:52;19.10;69.30
54938;DHT22;52756;52.826;6.214;2023-05-07T11:36:19;19.20;68.40
54938;DHT22;52756;52.826;6.214;2023-05-07T11:38:46;19.40;69.40
54938;DHT22;52756;52.826;6.214;2023-05-07T11:41:11;19.50;68.30
54938;DHT22;52756;52.826;6.214;2023-05-07T11:43:37;19.70;67.20
54938;DHT22;52756;52.826;6.214;2023-05-07T11:46:09;19.80;66.00
54938;DHT22;52756;52.826;6.214;2023-05-07T11:48:35;20.00;64.80
54938;DHT22;52756;52.826;6.214;2023-05-07T11:51:03;20.00;65.10
54938;DHT22;52756;52.826;6.214;2023-05-07T11:53:40;20.10;65.00
54938;DHT22;52756;52.826;6.214;2023-05-07T11:56:07;20.20;63.00
54938;DHT22;52756;52.826;6.214;2023-05-07T11:58:34;20.40;64.10
54938;DHT22;52756;52.826;6.214;2023-05-07T12:01:00;20.40;64.10
54938;DHT22;52756;52.826;6.214;2023-05-07T12:03:25;20.50;63.80
54938;DHT22;52756;52.826;6.214;2023-05-07T12:05:51;20.40;62.50
54938;DHT22;52756;52.826;6.214;2023-05-07T12:08:18;20.40;62.30
54938;DHT22;52756;52.826;6.214;2023-05-07T12:10:46;20.40;62.50
54938;DHT22;52756;52.826;6.214;2023-05-07T12:13:20;20.40;62.70
54938;DHT22;52756;52.826;6.214;2023-05-07T12:15:46;20.30;63.20
54938;DHT22;52756;52.826;6.214;2023-05-07T12:18:13;20.30;63.70
54938;DHT22;52756;52.826;6.214;2023-05-07T12:20:39;20.40;64.40
54938;DHT22;52756;52.826;6.214;2023-05-07T12:23:05;20.50;64.40
54938;DHT22;52756;52.826;6.214;2023-05-07T12:25:33;20.50;62.50
54938;DHT22;52756;52.826;6.214;2023-05-07T12:28:01;20.50;62.40
54938;DHT22;52756;52.826;6.214;2023-05-07T12:30:26;20.50;62.60
54938;DHT22;52756;52.826;6.214;2023-05-07T12:32:53;20.50;62.50
54938;DHT22;52756;52.826;6.214;2023-05-07T12:35:30;20.50;60.90
54938;DHT22;52756;52.826;6.214;2023-05-07T12:37:57;20.50;61.60
54938;DHT22;52756;52.826;6.214;2023-05-07T12:40:35;20.50;60.60
54938;DHT22;52756;52.826;6.214;2023-05-07T12:43:01;20.50;60.10
54938;DHT22;52756;52.826;6.214;2023-05-07T12:45:26;20.50;60.60
54938;DHT22;52756;52.826;6.214;2023-05-07T12:47:52;20.50;61.70
54938;DHT22;52756;52.826;6.214;2023-05-07T12:50:18;20.50;61.20
54938;DHT22;52756;52.826;6.214;2023-05-07T12:52:45;20.60;60.80
54938;DHT22;52756;52.826;6.214;2023-05-07T12:55:14;20.50;59.80
54938;DHT22;52756;52.826;6.214;2023-05-07T12:57:50;20.40;59.80
54938;DHT22;52756;52.826;6.214;2023-05-07T13:00:38;20.40;60.40
54938;DHT22;52756;52.826;6.214;2023-05-07T13:03:04;20.30;60.60
54938;DHT22;52756;52.826;6.214;2023-05-07T13:05:31;20.30;60.90
54938;DHT22;52756;52.826;6.214;2023-05-07T13:07:57;20.40;60.90
54938;DHT22;52756;52.826;6.214;2023-05-07T13:10:24;20.30;60.20
54938;DHT22;52756;52.826;6.214;2023-05-07T13:12:50;20.30;60.20
54938;DHT22;52756;52.826;6.214;2023-05-07T13:15:17;20.30;59.70
54938;DHT22;52756;52.826;6.214;2023-05-07T13:17:43;20.30;60.50
54938;DHT22;52756;52.826;6.214;2023-05-07T13:20:09;20.30;61.60
54938;DHT22;52756;52.826;6.214;2023-05-07T13:22:36;20.30;61.50
54938;DHT22;52756;52.826;6.214;2023-05-07T13:25:01;20.20;62.10
54938;DHT22;52756;52.826;6.214;2023-05-07T13:27:27;20.20;62.20
54938;DHT22;52756;52.826;6.214;2023-05-07T13:29:53;20.10;61.60
54938;DHT22;52756;52.826;6.214;2023-05-07T13:32:18;20.10;62.40
54938;DHT22;52756;52.826;6.214;2023-05-07T13:34:44;20.10;62.90
54938;DHT22;52756;52.826;6.214;2023-05-07T13:37:10;20.10;62.80
54938;DHT22;52756;52.826;6.214;2023-05-07T13:39:36;20.10;62.30
54938;DHT22;52756;52.826;6.214;2023-05-07T13:42:02;20.00;62.20
54938;DHT22;52756;52.826;6.214;2023-05-07T13:44:27;20.00;62.80
54938;DHT22;52756;52.826;6.214;2023-05-07T13:46:53;20.00;63.30
54938;DHT22;52756;52.826;6.214;2023-05-07T13:49:19;20.00;62.80
54938;DHT22;52756;52.826;6.214;2023-05-07T13:51:46;19.90;62.50
54938;DHT22;52756;52.826;6.214;2023-05-07T13:54:12;19.80;62.80
54938;DHT22;52756;52.826;6.214;2023-05-07T13:56:37;19.80;63.70
54938;DHT22;52756;52.826;6.214;2023-05-07T13:59:03;19.70;63.50
54938;DHT22;52756;52.826;6.214;2023-05-07T14:01:29;19.70;64.30
54938;DHT22;52756;52.826;6.214;2023-05-07T14:03:56;19.70;64.60
54938;DHT22;52756;52.826;6.214;2023-05-07T14:06:23;19.70;65.40
54938;DHT22;52756;52.826;6.214;2023-05-07T14:08:48;19.80;65.80
54938;DHT22;52756;52.826;6.214;2023-05-07T14:11:14;19.70;64.30
54938;DHT22;52756;52.826;6.214;2023-05-07T14:13:40;19.70;64.70
54938;DHT22;52756;52.826;6.214;2023-05-07T14:16:05;19.70;64.40
54938;DHT22;52756;52.826;6.214;2023-05-07T14:18:31;19.60;64.40
54938;DHT22;52756;52.826;6.214;2023-05-07T14:20:59;19.60;65.70
54938;DHT22;52756;52.826;6.214;2023-05-07T14:23:24;19.60;65.00
54938;DHT22;52756;52.826;6.214;2023-05-07T14:25:52;19.50;64.20
54938;DHT22;52756;52.826;6.214;2023-05-07T14:28:19;19.50;64.00
54938;DHT22;52756;52.826;6.214;2023-05-07T14:30:45;19.50;64.10
54938;DHT22;52756;52.826;6.214;2023-05-07T14:33:10;19.50;64.30
54938;DHT22;52756;52.826;6.214;2023-05-07T14:35:36;19.40;64.10
54938;DHT22;52756;52.826;6.214;2023-05-07T14:38:02;19.40;64.50
54938;DHT22;52756;52.826;6.214;2023-05-07T14:40:28;19.30;65.00
54938;DHT22;52756;52.826;6.214;2023-05-07T14:42:53;19.30;66.00
54938;DHT22;52756;52.826;6.214;2023-05-07T14:45:21;19.30;65.20
54938;DHT22;52756;52.826;6.214;2023-05-07T14:47:46;19.30;65.20
54938;DHT22;52756;52.826;6.214;2023-05-07T14:50:12;19.30;64.30
54938;DHT22;52756;52.826;6.214;2023-05-07T14:52:38;19.30;64.60
54938;DHT22;52756;52.826;6.214;2023-05-07T14:55:04;19.30;64.90
54938;DHT22;52756;52.826;6.214;2023-05-07T14:57:30;19.40;64.90
54938;DHT22;52756;52.826;6.214;2023-05-07T15:00:01;19.40;64.50
54938;DHT22;52756;52.826;6.214;2023-05-07T15:02:26;19.50;65.50
54938;DHT22;52756;52.826;6.214;2023-05-07T15:04:52;19.60;65.60
54938;DHT22;52756;52.826;6.214;2023-05-07T15:07:18;19.60;64.90
54938;DHT22;52756;52.826;6.214;2023-05-07T15:09:44;19.70;65.20
54938;DHT22;52756;52.826;6.214;2023-05-07T15:12:10;19.70;65.10
54938;DHT22;52756;52.826;6.214;2023-05-07T15:14:37;19.80;65.20
54938;DHT22;52756;52.826;6.214;2023-05-07T15:17:03;19.90;64.60
54938;DHT22;52756;52.826;6.214;2023-05-07T15:19:29;20.00;64.80
54938;DHT22;52756;52.826;6.214;2023-05-07T15:21:57;20.00;64.40
54938;DHT22;52756;52.826;6.214;2023-05-07T15:24:23;20.10;63.60
54938;DHT22;52756;52.826;6.214;2023-05-07T15:26:51;20.10;62.90
54938;DHT22;52756;52.826;6.214;2023-05-07T15:29:17;20.10;62.50
54938;DHT22;52756;52.826;6.214;2023-05-07T15:31:43;20.00;61.90
54938;DHT22;52756;52.826;6.214;2023-05-07T15:34:08;20.00;61.70
54938;DHT22;52756;52.826;6.214;2023-05-07T15:36:34;19.90;61.40
54938;DHT22;52756;52.826;6.214;2023-05-07T15:39:00;19.90;61.20